createdAt,value
2023-02-09T00:00:13.614Z,0.38
2023-02-09T00:05:37.916Z,0.55
2023-02-09T00:10:41.530Z,0.07
2023-02-09T00:16:03.778Z,-0.97
2023-02-09T00:21:11.818Z,-1.32
2023-02-09T00:26:15.634Z,-0.86
2023-02-09T00:31:19.512Z,-0.79
2023-02-09T00:36:23.163Z,-0.77
2023-02-09T00:41:45.339Z,-0.76
2023-02-09T00:46:49.696Z,-0.43
2023-02-09T00:51:53.724Z,-0.49
2023-02-09T00:56:58.994Z,-0.35
2023-02-09T01:02:03.509Z,-0.32
2023-02-09T01:07:07.167Z,-0.29
2023-02-09T01:19:03.067Z,-0.30
2023-02-09T01:24:06.988Z,-0.36
2023-02-09T01:29:15.576Z,-0.48
2023-02-09T01:34:20.523Z,-0.37
2023-02-09T01:39:24.355Z,-0.38
2023-02-09T01:44:30.556Z,-0.35
2023-02-09T01:49:53.307Z,-0.23
2023-02-09T01:55:03.819Z,-0.19
2023-02-09T02:00:17.971Z,-0.08
2023-02-09T02:05:23.914Z,-0.06
2023-02-09T02:10:27.663Z,-0.08
2023-02-09T02:15:56.945Z,-0.11
2023-02-09T02:21:59.789Z,-0.06
2023-02-09T02:27:21.528Z,-0.05
2023-02-09T02:33:18.892Z,0.01
2023-02-09T02:38:41.483Z,-0.02
2023-02-09T02:44:07.881Z,-0.02
2023-02-09T02:50:06.520Z,-0.01
2023-02-09T02:55:17.651Z,-0.30
2023-02-09T03:00:33.346Z,-0.24
2023-02-09T03:06:05.147Z,-0.39
2023-02-09T03:11:12.245Z,-0.40
2023-02-09T03:31:01.053Z,-0.70
2023-02-09T03:36:24.218Z,-0.82
2023-02-09T03:41:28.512Z,-0.88
2023-02-09T03:46:33.930Z,-0.96
2023-02-09T03:51:37.670Z,-0.81
2023-02-09T03:56:47.998Z,-0.76
2023-02-09T04:01:53.982Z,-0.74
2023-02-09T04:06:58.096Z,-0.75
2023-02-09T04:12:01.643Z,-0.93
2023-02-09T04:17:23.872Z,-1.02
2023-02-09T04:22:27.525Z,-1.03
2023-02-09T04:27:31.244Z,-1.26
2023-02-09T04:32:34.934Z,-1.29
2023-02-09T04:53:24.427Z,-1.24
2023-02-09T04:58:47.322Z,-1.29
2023-02-09T05:03:52.473Z,-1.27
2023-02-09T05:19:35.488Z,-1.34
2023-02-09T05:24:39.020Z,-1.28
2023-02-09T05:29:42.731Z,-1.31
2023-02-09T05:34:46.555Z,-1.33
2023-02-09T05:39:51.405Z,-1.30
2023-02-09T05:44:55.674Z,-1.35
2023-02-09T05:50:20.566Z,-1.30
2023-02-09T05:55:24.695Z,-1.14
2023-02-09T06:00:30.428Z,-1.12
2023-02-09T06:12:55.386Z,-1.08
2023-02-09T06:18:50.479Z,-1.17
2023-02-09T06:24:44.154Z,-1.23
2023-02-09T06:29:47.880Z,-1.24
2023-02-09T06:34:51.519Z,-1.23
2023-02-09T06:39:55.016Z,-1.19
2023-02-09T06:44:59.773Z,-0.95
2023-02-09T06:50:04.109Z,-0.50
2023-02-09T06:55:09.179Z,0.11
2023-02-09T07:01:09.565Z,0.96
2023-02-09T07:06:19.996Z,2.13
2023-02-09T07:12:01.318Z,2.22
2023-02-09T07:17:04.924Z,2.15
2023-02-09T07:47:12.713Z,4.68
2023-02-09T08:07:00.924Z,6.53
2023-02-09T08:17:18.465Z,7.71
2023-02-09T08:22:25.546Z,8.85
2023-02-09T08:27:30.314Z,9.20
2023-02-09T08:32:34.133Z,9.87
2023-02-09T08:37:37.756Z,9.50
2023-02-09T08:42:41.474Z,9.42
2023-02-09T08:47:45.011Z,9.70
2023-02-09T08:52:48.994Z,10.13
2023-02-09T09:12:36.784Z,9.71
2023-02-09T09:18:07.147Z,9.43
2023-02-09T09:23:11.622Z,9.63
2023-02-09T09:28:40.348Z,9.54
2023-02-09T09:58:54.430Z,10.73
2023-02-09T10:04:48.726Z,11.78
2023-02-09T10:10:05.370Z,11.61
2023-02-09T10:15:19.763Z,11.60
2023-02-09T10:20:43.856Z,11.87
2023-02-09T10:25:47.478Z,11.73
2023-02-09T10:30:54.972Z,12.22
2023-02-09T10:36:03.496Z,12.45
2023-02-09T10:41:11.729Z,12.83
2023-02-09T10:46:21.495Z,13.16
2023-02-09T10:51:34.030Z,13.55
2023-02-09T10:56:50.384Z,13.51
2023-02-09T11:02:02.172Z,13.67
2023-02-09T11:07:59.092Z,13.94
2023-02-09T11:13:03.432Z,14.18
2023-02-09T11:19:41.831Z,14.32
2023-02-09T11:25:28.029Z,13.96
2023-02-09T11:30:44.013Z,12.17
2023-02-09T11:36:25.554Z,10.46
2023-02-09T11:42:04.721Z,8.09
2023-02-09T11:47:15.909Z,5.63
2023-02-09T11:52:32.014Z,3.99
2023-02-09T11:57:47.884Z,2.99
2023-02-09T12:03:14.567Z,2.52
2023-02-09T12:09:22.937Z,2.28
2023-02-09T12:15:05.870Z,2.40
2023-02-09T12:20:45.183Z,2.83
2023-02-09T12:26:01.682Z,2.54
2023-02-09T12:31:09.589Z,2.23
2023-02-09T12:37:01.550Z,2.19
2023-02-09T12:42:05.028Z,2.16
2023-02-09T12:47:46.946Z,2.09
2023-02-09T12:53:24.881Z,2.37
2023-02-09T12:59:06.422Z,2.98
2023-02-09T13:04:10.990Z,3.75
2023-02-09T13:09:33.620Z,4.44
2023-02-09T13:14:39.302Z,4.79
2023-02-09T13:20:27.138Z,4.96
2023-02-09T13:25:40.783Z,4.82
2023-02-09T13:46:34.884Z,3.97
2023-02-09T13:51:39.461Z,4.21
2023-02-09T14:05:22.104Z,5.88
2023-02-09T14:21:18.869Z,5.88
2023-02-09T14:26:29.704Z,4.49
2023-02-09T14:39:12.303Z,2.82
2023-02-09T14:44:23.437Z,2.54
2023-02-09T14:49:30.933Z,2.26
2023-02-09T14:55:18.514Z,2.07
2023-02-09T15:00:31.901Z,1.89
2023-02-09T15:06:00.876Z,1.67
2023-02-09T15:11:51.750Z,1.42
2023-02-09T15:31:25.831Z,0.54
2023-02-09T15:37:26.947Z,0.39
2023-02-09T15:42:51.370Z,0.23
2023-02-09T15:47:56.945Z,0.15
2023-02-09T15:53:53.200Z,0.04
2023-02-09T15:59:03.992Z,-0.02
2023-02-09T16:14:37.557Z,-0.15
2023-02-09T16:26:43.055Z,-0.25
2023-02-09T16:40:16.956Z,-0.28
2023-02-09T16:45:22.644Z,-0.35
2023-02-09T16:51:16.404Z,-0.37
2023-02-09T16:56:21.157Z,-0.35
2023-02-09T17:08:57.004Z,0.03
2023-02-09T17:14:00.896Z,0.98
2023-02-09T17:19:13.442Z,0.67
2023-02-09T17:24:36.240Z,0.19
2023-02-09T17:29:40.769Z,0.23
2023-02-09T17:34:47.886Z,0.79
2023-02-09T17:39:52.331Z,0.93
2023-02-09T17:45:28.999Z,0.37
2023-02-09T17:50:34.383Z,0.26
2023-02-09T17:55:38.465Z,1.17
2023-02-09T18:00:45.977Z,1.16
2023-02-09T18:07:15.946Z,0.52
2023-02-09T18:12:25.056Z,0.84
2023-02-09T18:17:59.260Z,1.44
2023-02-09T18:23:05.288Z,0.69
2023-02-09T18:28:27.859Z,0.68
2023-02-09T18:33:31.851Z,1.18
2023-02-09T18:38:36.702Z,1.51
2023-02-09T18:43:41.192Z,1.66
2023-02-09T18:49:04.258Z,0.79
2023-02-09T18:54:08.055Z,0.91
2023-02-09T18:59:11.887Z,1.43
2023-02-09T19:04:18.140Z,1.49
2023-02-09T19:16:13.467Z,1.31
2023-02-09T19:21:19.085Z,0.68
2023-02-09T19:26:28.861Z,1.02
2023-02-09T19:32:04.307Z,1.48
2023-02-09T19:37:13.526Z,1.17
2023-02-09T19:49:47.156Z,1.11
2023-02-09T19:54:52.185Z,1.38
2023-02-09T19:59:57.736Z,1.47
2023-02-09T20:05:52.688Z,1.50
2023-02-09T20:10:56.605Z,0.77
2023-02-09T20:16:00.791Z,0.54
2023-02-09T20:21:11.234Z,0.88
2023-02-09T20:26:40.824Z,1.24
2023-02-09T20:31:45.016Z,1.55
2023-02-09T20:36:49.425Z,1.23
2023-02-09T20:42:17.728Z,0.51
2023-02-09T20:47:21.721Z,0.48
2023-02-09T20:52:25.423Z,0.88
2023-02-09T20:57:31.963Z,1.18
2023-02-09T21:02:39.464Z,1.22
2023-02-09T21:07:43.304Z,0.60
2023-02-09T21:12:47.650Z,0.24
2023-02-09T21:17:52.084Z,0.66
2023-02-09T21:22:55.659Z,0.96
2023-02-09T21:28:02.770Z,1.14
2023-02-09T21:40:16.842Z,0.56
2023-02-09T21:45:20.741Z,0.16
2023-02-09T21:51:21.350Z,0.55
2023-02-09T21:57:16.321Z,0.73
2023-02-09T22:03:42.197Z,0.75
2023-02-09T22:08:45.853Z,0.75
2023-02-09T22:13:49.777Z,0.83
2023-02-09T22:18:53.693Z,0.68
2023-02-09T22:24:47.708Z,0.09
2023-02-09T22:29:51.564Z,-0.26
2023-02-09T22:34:55.582Z,0.18
2023-02-09T22:39:59.279Z,0.54
2023-02-09T22:45:07.671Z,0.61
2023-02-09T22:50:11.689Z,0.07
2023-02-09T22:55:15.633Z,-0.34
2023-02-09T23:00:19.472Z,-0.20
2023-02-09T23:06:16.651Z,0.37
2023-02-09T23:11:23.067Z,0.40
2023-02-09T23:16:30.175Z,-0.11
2023-02-09T23:21:41.508Z,-0.40
2023-02-09T23:26:45.430Z,-0.00
2023-02-09T23:31:49.703Z,0.37
2023-02-09T23:36:53.504Z,0.41
2023-02-09T23:41:57.076Z,-0.07
